Time;durP1;ratioP1;P1;durP2;ratioP2;P2;SDS_P1;SDS_P2;PMS_P1;PMS_P2;Temp;Humidity;BMP_temperature;BMP_pressure;BME280_temperature;BME280_humidity;BME280_pressure;Samples;Min_cycle;Max_cycle;Signal;HPM_P1;HPM_P2
2020/12/20 00:00:36;;;;;;;36.40;19.63;;;1.00;99.90;;;;;;4995572;28;20077;-57
2020/12/20 00:03:02;;;;;;;38.67;21.38;;;0.90;99.90;;;;;;4995260;28;20030;-59
2020/12/20 00:05:28;;;;;;;37.15;20.55;;;0.90;99.90;;;;;;5001139;28;20036;-59
2020/12/20 00:07:54;;;;;;;30.60;17.00;;;0.90;99.90;;;;;;5000533;28;20029;-59
2020/12/20 00:10:21;;;;;;;33.13;17.70;;;0.80;99.90;;;;;;4992463;28;20984;-59
2020/12/20 00:12:47;;;;;;;30.83;17.67;;;0.80;99.90;;;;;;4997347;28;20065;-59
2020/12/20 00:15:14;;;;;;;37.05;20.60;;;0.80;99.90;;;;;;4996057;28;20061;-59
2020/12/20 00:17:39;;;;;;;34.95;18.42;;;0.80;99.90;;;;;;4996693;28;20046;-58
2020/12/20 00:20:07;;;;;;;31.50;16.73;;;0.80;99.90;;;;;;4995725;28;20025;-57
2020/12/20 00:22:34;;;;;;;37.35;18.85;;;0.80;99.90;;;;;;4995609;28;20045;-58
2020/12/20 00:24:59;;;;;;;28.70;14.38;;;0.80;99.90;;;;;;4994677;28;20029;-58
2020/12/20 00:27:25;;;;;;;27.67;14.30;;;0.80;99.90;;;;;;4991952;28;20110;-59
2020/12/20 00:29:51;;;;;;;29.00;14.50;;;0.70;99.90;;;;;;4998285;28;20027;-59
2020/12/20 00:32:17;;;;;;;28.88;14.02;;;0.60;99.90;;;;;;4994429;28;20037;-57
2020/12/20 00:34:43;;;;;;;32.40;15.90;;;0.60;99.90;;;;;;4998228;28;20050;-59
2020/12/20 00:37:09;;;;;;;29.17;13.73;;;0.50;99.90;;;;;;4991985;28;20030;-58
2020/12/20 00:39:35;;;;;;;28.50;14.05;;;0.50;99.90;;;;;;4996894;28;20062;-58
2020/12/20 00:42:03;;;;;;;25.38;13.57;;;0.50;99.90;;;;;;4997486;28;20068;-59
2020/12/20 00:44:30;;;;;;;29.40;14.35;;;0.50;99.90;;;;;;4995305;28;20390;-58
2020/12/20 00:46:57;;;;;;;27.65;13.32;;;0.40;99.90;;;;;;4996058;28;20022;-59
2020/12/20 00:49:24;;;;;;;31.05;16.63;;;0.40;99.90;;;;;;5006819;28;20075;-59
2020/12/20 00:51:50;;;;;;;36.28;18.50;;;0.50;99.90;;;;;;5038229;28;20409;-58
2020/12/20 00:54:16;;;;;;;32.35;16.05;;;0.50;99.90;;;;;;5037023;28;20037;-58
2020/12/20 00:56:42;;;;;;;34.42;17.55;;;0.50;99.90;;;;;;5039073;28;20092;-59
2020/12/20 00:59:07;;;;;;;35.05;16.42;;;0.40;99.90;;;;;;5034192;28;20485;-59
2020/12/20 01:01:33;;;;;;;37.30;18.80;;;0.40;99.90;;;;;;5041925;28;20033;-58
2020/12/20 01:03:58;;;;;;;29.48;15.07;;;0.40;99.90;;;;;;5056852;28;20108;-56
2020/12/20 01:06:24;;;;;;;42.10;21.50;;;0.40;99.90;;;;;;5041268;28;20092;-59
2020/12/20 01:08:51;;;;;;;43.40;20.10;;;0.40;99.90;;;;;;5033602;28;20021;-59
2020/12/20 01:11:18;;;;;;;29.58;15.80;;;0.50;99.90;;;;;;5039055;28;20018;-59
2020/12/20 01:13:48;;;;;;;34.03;16.83;;;0.40;99.90;;;;;;5041306;28;20033;-58
2020/12/20 01:16:25;;;;;;;30.15;16.40;;;0.40;99.90;;;;;;5038013;28;20059;-59
2020/12/20 01:18:54;;;;;;;42.20;18.33;;;0.40;99.90;;;;;;5034617;28;20232;-59
2020/12/20 01:21:20;;;;;;;35.60;16.75;;;0.40;99.90;;;;;;5034845;28;20032;-59
2020/12/20 01:23:47;;;;;;;32.30;17.65;;;0.50;99.90;;;;;;5033310;28;20037;-58
2020/12/20 01:26:14;;;;;;;31.98;15.80;;;0.50;99.90;;;;;;5035308;28;20390;-59
2020/12/20 01:28:39;;;;;;;36.10;18.10;;;0.50;99.90;;;;;;5026593;28;20021;-59
2020/12/20 01:31:09;;;;;;;38.65;18.95;;;0.50;99.90;;;;;;5038878;28;20039;-58
2020/12/20 01:33:35;;;;;;;47.60;23.67;;;0.50;99.90;;;;;;5039212;28;20026;-59
2020/12/20 01:36:13;;;;;;;43.63;20.52;;;0.50;99.90;;;;;;5037367;28;20036;-58
2020/12/20 01:38:39;;;;;;;31.05;15.68;;;0.50;99.90;;;;;;5033084;28;20497;-58
2020/12/20 01:41:05;;;;;;;37.13;17.88;;;0.50;99.90;;;;;;5037768;28;20424;-58
2020/12/20 01:43:45;;;;;;;42.97;17.73;;;0.50;99.90;;;;;;5035702;28;20072;-58
2020/12/20 01:46:16;;;;;;;44.28;21.85;;;0.40;99.90;;;;;;5033150;28;20024;-59
2020/12/20 01:48:42;;;;;;;55.20;26.85;;;0.50;99.90;;;;;;5034470;28;20079;-58
2020/12/20 01:51:08;;;;;;;47.22;23.17;;;0.50;99.90;;;;;;5043492;28;20061;-59
2020/12/20 01:53:38;;;;;;;40.28;19.67;;;0.60;99.90;;;;;;5036271;28;20029;-59
2020/12/20 01:56:05;;;;;;;36.67;16.60;;;0.60;99.90;;;;;;5037319;28;20033;-59
2020/12/20 01:58:31;;;;;;;40.60;20.55;;;0.50;99.90;;;;;;5040075;28;20025;-59
2020/12/20 02:00:57;;;;;;;37.17;18.67;;;0.40;99.90;;;;;;5034348;28;20095;-59
2020/12/20 02:03:24;;;;;;;37.22;18.20;;;0.50;99.90;;;;;;5042088;28;20490;-59
2020/12/20 02:05:50;;;;;;;48.55;22.67;;;0.40;99.90;;;;;;5023972;28;20040;-59
2020/12/20 02:08:17;;;;;;;39.67;19.10;;;0.40;99.90;;;;;;5035522;28;20087;-59
2020/12/20 02:10:43;;;;;;;32.90;16.13;;;0.40;99.90;;;;;;5040662;28;20017;-59
2020/12/20 02:13:08;;;;;;;41.15;21.85;;;0.40;99.90;;;;;;5032729;28;20052;-59
2020/12/20 02:15:34;;;;;;;39.08;18.70;;;0.40;99.90;;;;;;5036779;28;20378;-58
2020/12/20 02:17:59;;;;;;;37.97;20.02;;;0.40;99.90;;;;;;5033332;28;20028;-59
2020/12/20 02:20:25;;;;;;;35.60;18.63;;;0.40;99.90;;;;;;5036491;28;20021;-59
2020/12/20 02:22:54;;;;;;;41.67;18.77;;;0.40;99.90;;;;;;5038019;28;20029;-59
2020/12/20 02:25:20;;;;;;;37.53;18.58;;;0.40;99.90;;;;;;5034175;28;20025;-59
2020/12/20 02:27:45;;;;;;;37.22;20.00;;;0.40;99.90;;;;;;5026108;28;20060;-58
2020/12/20 02:30:11;;;;;;;44.53;20.35;;;0.50;99.90;;;;;;5035435;28;20059;-59
2020/12/20 02:32:36;;;;;;;37.95;20.35;;;0.50;99.90;;;;;;5034720;28;20029;-57
2020/12/20 02:35:02;;;;;;;38.38;19.05;;;0.40;99.90;;;;;;5033118;28;20068;-58
2020/12/20 02:37:28;;;;;;;53.03;24.10;;;0.40;99.90;;;;;;5032712;28;20036;-57
2020/12/20 02:39:53;;;;;;;39.90;18.67;;;0.40;99.90;;;;;;5043091;28;20480;-59
2020/12/20 02:42:19;;;;;;;55.65;28.00;;;0.40;99.90;;;;;;5032687;28;20053;-59
2020/12/20 02:44:44;;;;;;;54.67;25.77;;;0.40;99.90;;;;;;5039651;28;20220;-55
2020/12/20 02:47:10;;;;;;;47.00;22.45;;;0.40;99.90;;;;;;5038216;28;20059;-59
2020/12/20 02:49:36;;;;;;;44.00;19.85;;;0.40;99.90;;;;;;5040026;28;20041;-60
2020/12/20 02:52:02;;;;;;;46.50;19.75;;;0.40;99.90;;;;;;5036815;28;20718;-59
2020/12/20 02:54:27;;;;;;;48.65;25.38;;;0.30;99.90;;;;;;5031507;28;20478;-59
2020/12/20 02:56:53;;;;;;;42.47;18.80;;;0.30;99.90;;;;;;5034716;28;20861;-59
2020/12/20 02:59:18;;;;;;;38.55;18.55;;;0.30;99.90;;;;;;5040917;28;20075;-58
2020/12/20 03:01:44;;;;;;;40.58;19.85;;;0.30;99.90;;;;;;5040731;28;20037;-59
2020/12/20 03:04:09;;;;;;;33.70;16.63;;;0.30;99.90;;;;;;5037897;28;20025;-58
2020/12/20 03:06:35;;;;;;;33.78;17.10;;;0.30;99.90;;;;;;5032557;28;20033;-58
2020/12/20 03:09:00;;;;;;;37.40;17.40;;;0.20;99.90;;;;;;5035922;28;20030;-58
2020/12/20 03:11:26;;;;;;;42.42;17.83;;;0.20;99.90;;;;;;5038183;28;20068;-58
2020/12/20 03:13:51;;;;;;;28.25;14.63;;;0.10;99.90;;;;;;5031888;28;20418;-57
2020/12/20 03:16:17;;;;;;;32.03;15.45;;;0.10;99.90;;;;;;5027485;28;20032;-59
2020/12/20 03:18:42;;;;;;;41.75;17.20;;;0.00;99.90;;;;;;5036146;28;20572;-59
2020/12/20 03:21:08;;;;;;;39.05;18.17;;;0.00;99.90;;;;;;5037369;28;20047;-58
2020/12/20 03:23:33;;;;;;;34.28;16.10;;;0.00;99.90;;;;;;5033170;28;20040;-59
2020/12/20 03:25:59;;;;;;;36.22;16.30;;;-0.10;99.90;;;;;;5035570;28;20033;-58
2020/12/20 03:28:24;;;;;;;28.83;13.10;;;-0.10;99.90;;;;;;5037612;28;20425;-58
2020/12/20 03:30:50;;;;;;;36.72;19.90;;;-0.10;99.90;;;;;;5037081;28;20025;-58
2020/12/20 03:33:15;;;;;;;33.97;17.83;;;0.00;99.90;;;;;;5031877;28;20033;-58
2020/12/20 03:35:41;;;;;;;36.70;16.52;;;0.00;99.90;;;;;;5026982;28;20026;-58
2020/12/20 03:38:06;;;;;;;39.55;18.55;;;0.00;99.90;;;;;;5033894;28;20044;-59
2020/12/20 03:40:32;;;;;;;37.63;17.15;;;0.00;99.90;;;;;;5034931;28;20509;-59
2020/12/20 03:42:57;;;;;;;31.63;14.68;;;-0.10;99.90;;;;;;5033984;28;20033;-59
2020/12/20 03:45:23;;;;;;;38.97;19.20;;;-0.10;99.90;;;;;;5049300;28;20112;-58
2020/12/20 03:47:48;;;;;;;39.75;21.02;;;-0.10;99.90;;;;;;5036339;28;20029;-59
2020/12/20 03:50:14;;;;;;;50.17;25.20;;;-0.10;99.90;;;;;;5015710;28;20049;-58
2020/12/20 03:52:40;;;;;;;40.45;20.38;;;0.00;99.90;;;;;;5032859;28;20053;-59
2020/12/20 03:55:06;;;;;;;42.42;20.00;;;0.00;99.90;;;;;;5035667;28;20111;-58
2020/12/20 03:57:31;;;;;;;43.80;21.55;;;0.00;99.90;;;;;;5035631;28;20172;-59
2020/12/20 03:59:57;;;;;;;36.42;17.02;;;0.00;99.90;;;;;;5041444;28;20044;-57
2020/12/20 04:02:23;;;;;;;41.65;18.98;;;0.00;99.90;;;;;;5031591;28;20067;-59
2020/12/20 04:04:49;;;;;;;44.83;20.42;;;0.00;99.90;;;;;;5031433;28;20196;-59
2020/12/20 04:07:14;;;;;;;64.20;30.67;;;0.10;99.90;;;;;;5031460;28;20382;-56
2020/12/20 04:09:40;;;;;;;38.00;19.38;;;0.10;99.90;;;;;;5037130;28;20041;-59
2020/12/20 04:12:05;;;;;;;49.45;22.25;;;0.10;99.90;;;;;;5034186;28;20060;-59
2020/12/20 04:14:31;;;;;;;49.88;25.20;;;0.10;99.90;;;;;;5039266;28;20060;-59
2020/12/20 04:16:57;;;;;;;44.60;20.65;;;0.10;99.90;;;;;;5041891;28;20132;-58
2020/12/20 04:19:22;;;;;;;48.47;22.38;;;0.10;99.90;;;;;;5039355;28;20033;-58
2020/12/20 04:21:48;;;;;;;41.38;20.77;;;0.10;99.90;;;;;;5042853;28;20037;-57
2020/12/20 04:24:14;;;;;;;55.80;27.73;;;0.10;99.90;;;;;;5038800;28;20521;-59
2020/12/20 04:26:40;;;;;;;54.35;27.17;;;0.10;99.90;;;;;;5042287;28;20041;-58
2020/12/20 04:29:06;;;;;;;45.65;23.17;;;0.10;99.90;;;;;;5040089;28;20068;-58
2020/12/20 04:31:31;;;;;;;53.40;26.00;;;0.10;99.90;;;;;;5041001;28;20475;-59
2020/12/20 04:33:57;;;;;;;49.55;24.38;;;0.00;99.90;;;;;;5035013;28;20025;-59
2020/12/20 04:36:22;;;;;;;51.33;25.08;;;0.10;99.90;;;;;;5039838;28;20055;-58
2020/12/20 04:38:48;;;;;;;53.53;25.08;;;0.20;99.90;;;;;;5040753;28;20029;-58
2020/12/20 04:41:14;;;;;;;51.15;22.75;;;0.10;99.90;;;;;;5035052;28;20025;-59
2020/12/20 04:43:39;;;;;;;43.35;19.40;;;0.10;99.90;;;;;;5034530;28;20029;-58
2020/12/20 04:46:05;;;;;;;43.40;21.00;;;0.10;99.90;;;;;;5038827;28;20017;-59
2020/12/20 04:48:39;;;;;;;48.42;24.13;;;0.00;99.90;;;;;;5035722;28;20033;-58
2020/12/20 04:51:06;;;;;;;45.97;23.20;;;0.00;99.90;;;;;;5038312;28;20405;-58
2020/12/20 04:53:32;;;;;;;56.75;26.77;;;0.00;99.90;;;;;;5037282;28;20143;-57
2020/12/20 04:56:10;;;;;;;57.03;26.55;;;0.10;99.90;;;;;;5042035;28;20623;-58
2020/12/20 04:58:36;;;;;;;56.53;26.85;;;0.10;99.90;;;;;;5034013;28;20032;-58
2020/12/20 05:01:04;;;;;;;64.55;30.23;;;0.20;99.90;;;;;;5039905;28;20072;-59
2020/12/20 05:03:30;;;;;;;52.55;25.70;;;0.20;99.90;;;;;;5037332;28;20482;-58
2020/12/20 05:05:56;;;;;;;64.63;30.33;;;0.20;99.90;;;;;;5049922;28;20155;-57
2020/12/20 05:08:23;;;;;;;43.80;21.77;;;0.20;99.90;;;;;;5038081;28;20026;-56
2020/12/20 05:10:50;;;;;;;46.17;22.83;;;0.20;99.90;;;;;;5036389;28;20028;-58
2020/12/20 05:13:16;;;;;;;69.75;33.03;;;0.20;99.90;;;;;;5036796;28;20021;-57
2020/12/20 05:15:41;;;;;;;48.60;22.50;;;0.20;99.90;;;;;;5036283;28;20168;-58
2020/12/20 05:18:09;;;;;;;49.50;25.55;;;0.20;99.90;;;;;;5035940;28;20120;-58
2020/12/20 05:20:46;;;;;;;60.85;29.90;;;0.20;99.90;;;;;;5035951;28;20029;-58
2020/12/20 05:23:13;;;;;;;57.60;27.63;;;0.10;99.90;;;;;;5034896;28;20477;-58
2020/12/20 05:25:40;;;;;;;69.57;34.70;;;0.10;99.90;;;;;;5033832;28;20025;-59
2020/12/20 05:28:18;;;;;;;54.58;27.77;;;0.20;99.90;;;;;;5034270;28;20568;-58
2020/12/20 05:30:45;;;;;;;57.50;26.58;;;0.20;99.90;;;;;;5034646;28;20378;-58
2020/12/20 05:33:27;;;;;;;61.38;30.75;;;0.30;99.90;;;;;;5030889;28;20100;-58
2020/12/20 05:36:05;;;;;;;56.83;28.80;;;0.30;99.90;;;;;;5033813;28;20037;-59
2020/12/20 05:38:31;;;;;;;64.90;32.15;;;0.30;99.90;;;;;;5033753;28;20034;-59
2020/12/20 05:40:58;;;;;;;61.63;29.02;;;0.20;99.90;;;;;;5039645;28;20040;-57
2020/12/20 05:43:25;;;;;;;61.33;31.38;;;0.20;99.90;;;;;;5030837;28;20147;-57
2020/12/20 05:45:52;;;;;;;60.70;30.42;;;0.20;99.90;;;;;;5039859;28;20036;-58
2020/12/20 05:48:20;;;;;;;60.47;30.90;;;0.20;99.90;;;;;;5033625;28;20375;-58
2020/12/20 05:51:06;;;;;;;43.28;23.95;;;0.20;99.90;;;;;;5040295;28;20053;-58
2020/12/20 05:53:33;;;;;;;58.85;30.10;;;0.10;99.90;;;;;;5038398;28;20104;-58
2020/12/20 05:56:01;;;;;;;56.10;26.63;;;0.10;99.90;;;;;;5036393;28;20037;-58
2020/12/20 05:58:28;;;;;;;55.35;25.60;;;0.10;99.90;;;;;;5039782;28;20034;-59
2020/12/20 06:00:56;;;;;;;56.08;28.45;;;0.10;99.90;;;;;;5039798;28;20042;-58
2020/12/20 06:03:22;;;;;;;64.78;31.48;;;0.10;99.90;;;;;;5042632;28;20072;-58
2020/12/20 06:05:48;;;;;;;64.30;30.95;;;0.00;99.90;;;;;;5033083;28;20041;-58
2020/12/20 06:08:37;;;;;;;59.63;29.08;;;0.00;99.90;;;;;;5040473;28;20067;-58
2020/12/20 06:11:03;;;;;;;66.20;32.88;;;0.00;99.90;;;;;;5037880;28;20084;-58
2020/12/20 06:13:29;;;;;;;48.22;23.58;;;0.10;99.90;;;;;;5032999;28;20105;-59
2020/12/20 06:15:57;;;;;;;59.92;28.33;;;0.00;99.90;;;;;;5033252;28;20108;-58
2020/12/20 06:18:31;;;;;;;55.15;24.70;;;0.00;99.90;;;;;;5033762;28;20037;-59
2020/12/20 06:20:58;;;;;;;48.47;23.92;;;0.00;99.90;;;;;;5056056;28;20029;-59
2020/12/20 06:23:34;;;;;;;52.97;23.92;;;-0.10;99.90;;;;;;5014387;28;20026;-59
2020/12/20 06:26:03;;;;;;;55.97;26.33;;;-0.10;99.90;;;;;;5039779;28;20378;-59
2020/12/20 06:28:33;;;;;;;49.10;23.55;;;-0.10;99.90;;;;;;5025719;28;20528;-57
2020/12/20 06:31:00;;;;;;;56.45;25.50;;;-0.10;99.90;;;;;;5030643;28;20040;-58
2020/12/20 06:33:49;;;;;;;58.20;27.48;;;-0.10;99.90;;;;;;5034972;28;20025;-59
2020/12/20 06:36:16;;;;;;;47.92;23.75;;;-0.10;99.90;;;;;;5027733;28;20040;-56
2020/12/20 06:38:54;;;;;;;57.42;27.55;;;-0.10;99.90;;;;;;5031946;28;20088;-58
2020/12/20 06:41:36;;;;;;;54.58;24.98;;;-0.10;99.90;;;;;;5033381;28;20033;-59
2020/12/20 06:44:12;;;;;;;60.65;28.13;;;-0.10;99.90;;;;;;5032588;28;20029;-58
2020/12/20 06:46:39;;;;;;;54.40;26.67;;;-0.10;99.90;;;;;;5028524;28;20413;-59
2020/12/20 06:49:33;;;;;;;47.40;22.83;;;-0.10;99.90;;;;;;5034230;28;20026;-59
2020/12/20 06:52:28;;;;;;;58.33;28.20;;;-0.10;99.90;;;;;;5039399;28;20044;-58
2020/12/20 06:55:03;;;;;;;48.13;22.55;;;-0.10;99.90;;;;;;5017799;28;20075;-59
2020/12/20 06:57:29;;;;;;;42.17;20.63;;;-0.10;99.90;;;;;;5025231;28;20025;-58
2020/12/20 06:59:55;;;;;;;47.35;22.30;;;-0.10;99.90;;;;;;5042927;28;20032;-59
2020/12/20 07:02:46;;;;;;;54.35;24.98;;;-0.10;99.90;;;;;;5042746;28;20327;-58
2020/12/20 07:05:40;;;;;;;53.35;25.73;;;-0.10;99.90;;;;;;5027161;28;20024;-59
2020/12/20 07:08:11;;;;;;;50.10;23.38;;;0.00;99.90;;;;;;5037752;28;20069;-58
2020/12/20 07:10:51;;;;;;;45.13;20.13;;;0.00;99.90;;;;;;5018414;28;20027;-59
2020/12/20 07:13:38;;;;;;;49.38;23.42;;;0.00;99.90;;;;;;5032576;28;20021;-58
2020/12/20 07:16:10;;;;;;;39.17;19.25;;;0.00;99.90;;;;;;5037413;28;20519;-59
2020/12/20 07:18:42;;;;;;;59.28;28.35;;;0.00;99.90;;;;;;5038052;28;20212;-58
2020/12/20 07:21:19;;;;;;;60.78;27.00;;;0.00;99.90;;;;;;5036829;28;20039;-59
2020/12/20 07:23:53;;;;;;;53.15;25.85;;;0.10;99.90;;;;;;5034100;28;20032;-59
2020/12/20 07:26:22;;;;;;;51.20;25.35;;;0.00;99.90;;;;;;5035142;28;20083;-57
2020/12/20 07:28:48;;;;;;;42.78;20.98;;;0.10;99.90;;;;;;5032937;28;20446;-58
2020/12/20 07:31:15;;;;;;;43.08;20.65;;;0.10;99.90;;;;;;5040728;28;20048;-58
2020/12/20 07:33:42;;;;;;;43.40;21.30;;;0.10;99.90;;;;;;5023309;28;20116;-59
2020/12/20 07:36:07;;;;;;;51.88;25.02;;;0.20;99.90;;;;;;5036937;28;20635;-59
2020/12/20 07:38:33;;;;;;;50.22;22.45;;;0.30;99.90;;;;;;5026638;28;20021;-57
2020/12/20 07:40:58;;;;;;;56.35;27.92;;;0.30;99.90;;;;;;5031978;28;20037;-59
2020/12/20 07:43:24;;;;;;;41.25;20.67;;;0.40;99.90;;;;;;5033499;28;20022;-58
2020/12/20 07:45:57;;;;;;;44.83;22.80;;;0.40;99.90;;;;;;5038771;28;20024;-59
2020/12/20 07:48:27;;;;;;;42.53;20.40;;;0.50;99.90;;;;;;5031258;28;20025;-58
2020/12/20 07:51:05;;;;;;;47.25;25.60;;;0.60;99.90;;;;;;5035079;28;20049;-56
2020/12/20 07:53:32;;;;;;;42.92;20.95;;;0.60;99.90;;;;;;5039746;28;20492;-58
2020/12/20 07:55:58;;;;;;;38.38;19.17;;;0.70;99.90;;;;;;5034396;28;20037;-57
2020/12/20 07:58:24;;;;;;;45.03;21.63;;;0.70;99.90;;;;;;5020295;28;20029;-57
2020/12/20 08:01:02;;;;;;;46.75;25.38;;;0.80;99.90;;;;;;5029461;28;20052;-58
2020/12/20 08:03:28;;;;;;;45.85;24.05;;;0.90;99.90;;;;;;5037908;28;20117;-55
2020/12/20 08:06:03;;;;;;;40.28;22.05;;;0.90;99.90;;;;;;5034674;28;20029;-59
2020/12/20 08:08:30;;;;;;;38.92;20.70;;;1.00;99.90;;;;;;5034670;28;20140;-59
2020/12/20 08:10:56;;;;;;;38.95;20.00;;;1.10;99.90;;;;;;5024055;28;20056;-58
2020/12/20 08:13:21;;;;;;;37.47;20.70;;;1.10;99.90;;;;;;5035532;28;20538;-58
2020/12/20 08:15:47;;;;;;;48.40;26.63;;;1.20;99.90;;;;;;5033663;28;20041;-58
2020/12/20 08:18:13;;;;;;;42.05;21.25;;;1.20;99.90;;;;;;5024298;28;20025;-58
2020/12/20 08:20:38;;;;;;;40.33;22.08;;;1.30;99.90;;;;;;5032694;28;20506;-59
2020/12/20 08:23:05;;;;;;;42.25;21.92;;;1.30;99.90;;;;;;5024219;28;20396;-59
2020/12/20 08:25:31;;;;;;;43.75;23.55;;;1.30;99.90;;;;;;5048734;28;20021;-59
2020/12/20 08:27:56;;;;;;;41.22;21.45;;;1.40;99.90;;;;;;5037746;28;20078;-59
2020/12/20 08:30:22;;;;;;;44.40;23.50;;;1.40;99.90;;;;;;5033203;28;20030;-59
2020/12/20 08:32:48;;;;;;;37.85;22.27;;;1.40;99.90;;;;;;5028120;28;20152;-58
2020/12/20 08:35:18;;;;;;;45.85;24.60;;;1.50;99.90;;;;;;5037758;28;20105;-59
2020/12/20 08:37:45;;;;;;;40.67;22.58;;;1.50;99.90;;;;;;5037250;28;20114;-59
2020/12/20 08:40:15;;;;;;;43.22;23.65;;;1.60;99.90;;;;;;5021450;28;20021;-58
2020/12/20 08:42:46;;;;;;;37.88;21.83;;;1.60;99.90;;;;;;5033956;28;20033;-58
2020/12/20 08:45:17;;;;;;;32.90;18.83;;;1.60;99.90;;;;;;5037238;28;20025;-59
2020/12/20 08:47:43;;;;;;;37.10;21.98;;;1.60;99.90;;;;;;5032238;28;20045;-59
2020/12/20 08:50:10;;;;;;;33.92;19.13;;;1.60;99.90;;;;;;5028404;28;20123;-59
2020/12/20 08:52:36;;;;;;;42.97;23.63;;;1.70;99.90;;;;;;5035261;28;20033;-59
2020/12/20 08:55:04;;;;;;;39.88;22.17;;;1.80;99.90;;;;;;5030080;28;20044;-58
2020/12/20 08:57:35;;;;;;;34.45;20.10;;;2.00;99.90;;;;;;5039050;28;20025;-58
2020/12/20 09:00:13;;;;;;;34.75;20.50;;;2.10;99.90;;;;;;5029434;28;20033;-59
2020/12/20 09:02:40;;;;;;;27.17;15.98;;;2.10;99.90;;;;;;5036857;28;20057;-59
2020/12/20 09:05:14;;;;;;;29.80;17.40;;;2.20;99.90;;;;;;5044888;28;20417;-58
2020/12/20 09:07:46;;;;;;;34.92;19.00;;;2.40;99.90;;;;;;5034283;28;20056;-58
2020/12/20 09:10:24;;;;;;;29.58;17.17;;;2.50;99.90;;;;;;5039322;28;20474;-57
2020/12/20 09:12:58;;;;;;;35.88;21.83;;;2.50;99.90;;;;;;5039902;28;20056;-59
2020/12/20 09:15:30;;;;;;;34.03;19.70;;;2.60;99.90;;;;;;5051767;28;20017;-58
2020/12/20 09:17:58;;;;;;;39.67;21.33;;;2.60;99.90;;;;;;5024319;28;20036;-58
2020/12/20 09:20:28;;;;;;;31.73;18.27;;;2.60;99.90;;;;;;5038951;28;20025;-58
2020/12/20 09:22:59;;;;;;;34.10;19.58;;;2.60;99.90;;;;;;5041340;28;20422;-58
2020/12/20 09:25:35;;;;;;;26.25;16.85;;;2.60;99.90;;;;;;5043934;28;20074;-59
2020/12/20 09:28:20;;;;;;;;;;;2.50;99.90;;;;;;5044730;28;20029;-59
2020/12/20 09:30:51;;;;;;;27.45;16.75;;;2.50;99.90;;;;;;5042183;28;19948;-58
2020/12/20 09:33:22;;;;;;;33.83;20.55;;;2.50;99.90;;;;;;5038930;28;20040;-57
2020/12/20 09:35:58;;;;;;;33.85;18.98;;;2.50;99.90;;;;;;5043713;28;20033;-59
2020/12/20 09:38:43;;;;;;;29.80;15.77;;;2.50;99.90;;;;;;5037174;28;20040;-59
2020/12/20 09:41:20;;;;;;;33.75;17.77;;;2.50;99.90;;;;;;5037616;28;20030;-59
2020/12/20 09:43:46;;;;;;;26.40;16.73;;;2.50;99.90;;;;;;5035685;28;20443;-57
2020/12/20 09:46:27;;;;;;;30.58;18.48;;;2.50;99.90;;;;;;5038424;28;20017;-59
2020/12/20 09:48:53;;;;;;;28.02;15.82;;;2.70;99.90;;;;;;5034363;28;20022;-59
2020/12/20 09:51:22;;;;;;;23.05;14.35;;;2.90;99.90;;;;;;5038202;28;20049;-57
2020/12/20 09:53:49;;;;;;;27.15;17.17;;;3.00;99.90;;;;;;5035945;28;20117;-59
2020/12/20 09:56:15;;;;;;;25.80;16.00;;;3.20;99.90;;;;;;5023059;28;20120;-58
2020/12/20 09:58:40;;;;;;;22.60;14.50;;;3.40;99.90;;;;;;5046374;28;20037;-59
2020/12/20 10:01:06;;;;;;;28.15;17.25;;;3.50;99.90;;;;;;5028684;28;20035;-57
2020/12/20 10:03:32;;;;;;;26.17;15.30;;;3.70;99.90;;;;;;5038051;28;20461;-59
2020/12/20 10:05:59;;;;;;;24.33;15.27;;;3.60;99.90;;;;;;5028713;28;20027;-59
2020/12/20 10:08:26;;;;;;;25.55;15.70;;;3.70;99.90;;;;;;5044239;28;20023;-59
2020/12/20 10:10:53;;;;;;;22.15;15.07;;;3.70;99.90;;;;;;5039856;28;20095;-58
2020/12/20 10:13:18;;;;;;;22.40;14.35;;;3.70;99.90;;;;;;5042629;28;20021;-59
2020/12/20 10:15:44;;;;;;;25.73;15.45;;;3.70;99.90;;;;;;5048696;28;20033;-59
2020/12/20 10:18:10;;;;;;;21.35;15.43;;;3.80;99.90;;;;;;5046182;28;20044;-59
2020/12/20 10:20:36;;;;;;;20.80;14.50;;;3.90;99.90;;;;;;5032867;28;20046;-59
2020/12/20 10:23:02;;;;;;;24.63;15.90;;;4.00;99.90;;;;;;5047446;28;20056;-59
2020/12/20 10:25:28;;;;;;;22.45;13.88;;;4.00;99.90;;;;;;5046680;28;20052;-59
2020/12/20 10:27:54;;;;;;;20.80;13.30;;;4.10;99.90;;;;;;5044489;28;20082;-59
2020/12/20 10:30:20;;;;;;;23.58;15.95;;;4.10;99.90;;;;;;5023514;28;20020;-58
2020/12/20 10:32:47;;;;;;;24.30;15.57;;;4.20;99.90;;;;;;5043220;28;20029;-59
2020/12/20 10:35:13;;;;;;;21.05;13.88;;;4.30;99.90;;;;;;5018467;28;20481;-59
2020/12/20 10:37:39;;;;;;;20.85;12.48;;;4.40;99.90;;;;;;5043527;28;20029;-59
2020/12/20 10:40:04;;;;;;;23.15;14.82;;;4.40;99.90;;;;;;5027147;28;20199;-59
2020/12/20 10:42:30;;;;;;;17.38;10.82;;;4.50;99.90;;;;;;5033282;28;20029;-59
2020/12/20 10:44:55;;;;;;;17.23;11.00;;;4.60;99.90;;;;;;5035769;28;20033;-59
2020/12/20 10:47:23;;;;;;;23.83;12.98;;;4.70;99.90;;;;;;5039057;28;20047;-59
2020/12/20 10:49:49;;;;;;;20.58;13.02;;;4.70;99.90;;;;;;5023171;28;20049;-59
2020/12/20 10:52:14;;;;;;;19.55;12.60;;;4.70;99.90;;;;;;5039755;28;20051;-59
2020/12/20 10:54:40;;;;;;;19.40;11.85;;;4.70;99.90;;;;;;5035091;28;20053;-58
2020/12/20 10:57:05;;;;;;;14.80;9.93;;;4.70;99.90;;;;;;5039015;28;20029;-58
2020/12/20 10:59:32;;;;;;;20.92;13.32;;;4.70;99.90;;;;;;5035744;28;20402;-58
2020/12/20 11:01:58;;;;;;;21.73;13.45;;;4.70;99.90;;;;;;5041744;28;20064;-59
2020/12/20 11:04:24;;;;;;;20.27;12.90;;;4.70;99.90;;;;;;5035676;28;20048;-59
2020/12/20 11:06:53;;;;;;;23.40;12.95;;;4.70;99.90;;;;;;5039511;28;20029;-58
2020/12/20 11:09:19;;;;;;;20.83;12.23;;;4.80;99.90;;;;;;5025863;28;20024;-59
2020/12/20 11:11:44;;;;;;;22.15;11.07;;;4.80;99.90;;;;;;5038248;28;20101;-58
2020/12/20 11:14:10;;;;;;;24.85;13.88;;;4.90;99.90;;;;;;5036938;28;20536;-59
2020/12/20 11:16:36;;;;;;;20.42;11.98;;;4.90;99.90;;;;;;5034135;28;20039;-59
2020/12/20 11:19:01;;;;;;;18.63;12.73;;;5.00;99.90;;;;;;5034234;28;20029;-59
2020/12/20 11:21:27;;;;;;;15.73;10.85;;;5.00;99.90;;;;;;5039088;28;20525;-57
2020/12/20 11:23:52;;;;;;;16.67;10.50;;;5.10;99.90;;;;;;5033316;28;20112;-59
2020/12/20 11:26:20;;;;;;;16.88;9.48;;;5.10;99.90;;;;;;5042538;28;20029;-59
2020/12/20 11:28:48;;;;;;;14.02;9.18;;;5.10;99.90;;;;;;5033510;28;20080;-59
2020/12/20 11:31:16;;;;;;;16.83;10.32;;;5.20;99.90;;;;;;5042398;28;20029;-58
2020/12/20 11:33:42;;;;;;;15.95;10.00;;;5.20;99.90;;;;;;5038711;28;20025;-59
2020/12/20 11:36:09;;;;;;;13.57;7.88;;;5.30;99.90;;;;;;5040582;28;20039;-57
2020/12/20 11:38:36;;;;;;;17.63;10.73;;;5.30;99.90;;;;;;5033663;28;20025;-59
2020/12/20 11:41:04;;;;;;;16.98;10.10;;;5.30;99.90;;;;;;5036453;28;20033;-59
2020/12/20 11:43:30;;;;;;;15.70;10.93;;;5.40;99.90;;;;;;5032808;28;20029;-59
2020/12/20 11:45:56;;;;;;;13.18;9.30;;;5.40;99.90;;;;;;5041856;28;20131;-58
2020/12/20 11:48:21;;;;;;;13.90;9.32;;;5.40;99.90;;;;;;5044807;28;20033;-59
2020/12/20 11:50:47;;;;;;;13.30;7.88;;;5.40;99.90;;;;;;5040641;28;20061;-58
2020/12/20 11:53:13;;;;;;;16.55;11.15;;;5.40;99.90;;;;;;5038937;28;20045;-58
2020/12/20 11:55:39;;;;;;;16.25;9.73;;;5.40;99.90;;;;;;5037589;28;20022;-58
2020/12/20 11:58:11;;;;;;;14.98;9.13;;;5.30;99.90;;;;;;5040249;28;20024;-59
2020/12/20 12:00:40;;;;;;;12.35;8.27;;;5.30;99.90;;;;;;5044457;28;20588;-59
2020/12/20 12:03:08;;;;;;;15.15;10.38;;;5.20;99.90;;;;;;5040506;28;20593;-59
2020/12/20 12:05:34;;;;;;;14.10;9.48;;;5.20;99.90;;;;;;5038689;28;20935;-58
2020/12/20 12:08:00;;;;;;;15.00;10.27;;;5.20;99.90;;;;;;5037838;28;20029;-59
2020/12/20 12:10:25;;;;;;;14.10;9.05;;;5.20;99.90;;;;;;5035500;28;20623;-59
2020/12/20 12:12:51;;;;;;;14.70;9.32;;;5.10;99.90;;;;;;5034159;28;20040;-58
2020/12/20 12:15:18;;;;;;;12.55;9.20;;;5.10;99.90;;;;;;5040745;28;20076;-59
2020/12/20 12:17:44;;;;;;;11.38;7.82;;;5.10;99.90;;;;;;5038750;28;20029;-59
2020/12/20 12:20:10;;;;;;;11.93;8.93;;;5.10;99.90;;;;;;5073036;28;20035;-59
2020/12/20 12:22:35;;;;;;;14.52;9.65;;;5.10;99.90;;;;;;5041942;28;20441;-59
2020/12/20 12:25:00;;;;;;;16.75;10.82;;;5.10;99.90;;;;;;5033697;28;20025;-59
2020/12/20 12:27:26;;;;;;;12.98;8.40;;;5.00;99.90;;;;;;5038629;28;20450;-59
2020/12/20 12:29:51;;;;;;;12.75;7.55;;;5.10;99.90;;;;;;5036917;28;20055;-59
2020/12/20 12:32:17;;;;;;;15.00;10.32;;;5.10;99.90;;;;;;5035201;28;20608;-59
2020/12/20 12:34:43;;;;;;;12.43;8.27;;;5.10;99.90;;;;;;5043671;28;20063;-59
2020/12/20 12:37:08;;;;;;;11.75;8.32;;;5.10;99.90;;;;;;5046977;28;20033;-59
2020/12/20 12:39:34;;;;;;;12.60;8.38;;;5.00;99.90;;;;;;5044139;28;20037;-57
2020/12/20 12:42:05;;;;;;;16.40;10.00;;;5.00;99.90;;;;;;5045617;28;20025;-58